createdAt,value
2016-12-05T00:00:53.547Z,1020.86
2016-12-05T00:05:49.854Z,1020.88
2016-12-05T00:10:46.646Z,1020.85
2016-12-05T00:15:42.861Z,1020.79
2016-12-05T00:20:39.350Z,1020.85
2016-12-05T00:25:36.314Z,1020.81
2016-12-05T00:30:32.678Z,1020.84
2016-12-05T00:35:28.877Z,1020.84
2016-12-05T00:40:25.503Z,1020.76
2016-12-05T00:45:22.433Z,1020.74
2016-12-05T00:50:19.465Z,1020.77
2016-12-05T00:55:16.180Z,1020.67
2016-12-05T01:00:12.602Z,1020.66
2016-12-05T01:05:09.249Z,1020.67
2016-12-05T01:10:05.788Z,1020.64
2016-12-05T01:15:02.989Z,1020.64
2016-12-05T01:19:59.905Z,1020.54
2016-12-05T01:24:56.488Z,1020.57
2016-12-05T01:29:53.510Z,1020.64
2016-12-05T01:34:52.557Z,1020.56
2016-12-05T01:39:48.381Z,1020.50
2016-12-05T01:44:44.849Z,1020.59
2016-12-05T01:49:42.222Z,1020.62
2016-12-05T01:54:38.570Z,1020.55
2016-12-05T01:59:35.126Z,1020.62
2016-12-05T02:04:31.797Z,1020.51
2016-12-05T02:09:28.304Z,1020.49
2016-12-05T02:14:24.784Z,1020.40
2016-12-05T02:19:21.189Z,1020.43
2016-12-05T02:24:17.340Z,1020.35
2016-12-05T02:29:13.893Z,1020.37
2016-12-05T02:34:11.423Z,1020.33
2016-12-05T02:39:07.619Z,1020.32
2016-12-05T02:44:04.272Z,1020.34
2016-12-05T02:49:00.616Z,1020.32
2016-12-05T02:53:57.072Z,1020.24
2016-12-05T02:58:53.764Z,1020.28
2016-12-05T03:03:50.318Z,1020.25
2016-12-05T03:08:46.766Z,1020.26
2016-12-05T03:13:44.140Z,1020.23
2016-12-05T03:18:40.489Z,1020.34
2016-12-05T03:23:37.018Z,1020.34
2016-12-05T03:28:33.186Z,1020.34
2016-12-05T03:33:29.164Z,1020.21
2016-12-05T03:38:25.648Z,1020.09
2016-12-05T03:43:22.685Z,1020.22
2016-12-05T03:48:19.195Z,1020.11
2016-12-05T03:53:15.543Z,1020.08
2016-12-05T03:58:11.891Z,1019.92
2016-12-05T04:03:08.331Z,1019.79
2016-12-05T04:08:05.040Z,1019.92
2016-12-05T04:13:01.554Z,1019.81
2016-12-05T04:17:58.720Z,1019.76
2016-12-05T04:22:56.085Z,1019.76
2016-12-05T04:27:52.587Z,1019.64
2016-12-05T04:32:49.810Z,1019.69
2016-12-05T04:37:46.119Z,1019.64
2016-12-05T04:42:42.573Z,1019.79
2016-12-05T04:47:38.811Z,1019.72
2016-12-05T04:52:35.272Z,1019.81
2016-12-05T04:57:31.586Z,1019.83
2016-12-05T05:02:28.023Z,1019.85
2016-12-05T05:07:24.445Z,1019.74
2016-12-05T05:12:20.893Z,1019.80
2016-12-05T05:17:17.714Z,1019.84
2016-12-05T05:22:14.025Z,1019.87
2016-12-05T05:27:10.416Z,1019.88
2016-12-05T05:32:07.145Z,1019.83
2016-12-05T05:37:03.439Z,1019.78
2016-12-05T05:41:59.699Z,1019.83
2016-12-05T05:46:56.370Z,1019.79
2016-12-05T05:51:54.037Z,1019.78
2016-12-05T05:56:50.284Z,1019.71
2016-12-05T06:01:47.146Z,1019.81
2016-12-05T06:06:46.263Z,1019.78
2016-12-05T06:11:42.345Z,1019.87
2016-12-05T06:16:38.435Z,1019.79
2016-12-05T06:21:35.409Z,1019.78
2016-12-05T06:26:32.010Z,1019.75
2016-12-05T06:31:29.164Z,1019.74
2016-12-05T06:36:26.803Z,1019.90
2016-12-05T06:41:23.152Z,1019.88
2016-12-05T06:46:19.357Z,1019.94
2016-12-05T06:51:18.112Z,1019.95
2016-12-05T06:56:13.974Z,1019.96
2016-12-05T07:01:10.420Z,1020.03
2016-12-05T07:06:06.605Z,1019.99
2016-12-05T07:11:04.304Z,1019.95
2016-12-05T07:15:59.977Z,1019.95
2016-12-05T07:20:56.971Z,1019.98
2016-12-05T07:25:53.300Z,1019.95
2016-12-05T07:30:49.507Z,1019.96
2016-12-05T07:35:47.243Z,1019.99
2016-12-05T07:40:43.303Z,1019.90
2016-12-05T07:45:40.444Z,1019.94
2016-12-05T07:50:36.604Z,1020.14
2016-12-05T07:55:32.811Z,1020.04
2016-12-05T08:00:29.175Z,1020.05
2016-12-05T08:05:25.793Z,1020.08
2016-12-05T08:10:22.029Z,1020.07
2016-12-05T08:15:18.342Z,1020.13
2016-12-05T08:20:15.645Z,1020.16
2016-12-05T08:25:11.910Z,1020.14
2016-12-05T08:30:08.253Z,1020.17
2016-12-05T08:35:04.477Z,1020.14
2016-12-05T08:40:01.085Z,1020.14
2016-12-05T08:44:57.834Z,1020.24
2016-12-05T08:49:54.237Z,1020.16
2016-12-05T08:54:50.637Z,1020.19
2016-12-05T08:59:47.132Z,1020.23
2016-12-05T09:04:43.568Z,1020.33
2016-12-05T09:09:39.764Z,1020.15
2016-12-05T09:14:36.107Z,1020.21
2016-12-05T09:19:32.428Z,1020.11
2016-12-05T09:24:29.866Z,1020.21
2016-12-05T09:29:26.890Z,1020.28
2016-12-05T09:34:23.464Z,1020.30
2016-12-05T09:39:19.854Z,1020.31
2016-12-05T09:44:16.352Z,1020.31
2016-12-05T09:49:13.206Z,1020.30
2016-12-05T09:54:10.500Z,1020.27
2016-12-05T09:59:07.363Z,1020.19
2016-12-05T10:04:04.101Z,1020.19
2016-12-05T10:09:00.632Z,1020.21
2016-12-05T10:13:57.298Z,1020.16
2016-12-05T10:18:53.797Z,1020.21
2016-12-05T10:23:50.297Z,1020.19
2016-12-05T10:28:46.658Z,1020.20
2016-12-05T10:33:45.461Z,1020.17
2016-12-05T10:38:41.538Z,1020.05
2016-12-05T10:43:38.156Z,1020.04
2016-12-05T10:48:34.539Z,1020.10
2016-12-05T10:53:31.449Z,1020.13
2016-12-05T10:58:28.313Z,1020.01
2016-12-05T11:03:25.047Z,1020.07
2016-12-05T11:08:21.867Z,1020.00
2016-12-05T11:13:18.511Z,1019.99
2016-12-05T11:18:15.774Z,1019.99
2016-12-05T11:23:12.428Z,1019.94
2016-12-05T11:28:09.917Z,1019.92
2016-12-05T11:33:06.328Z,1019.85
2016-12-05T11:38:02.538Z,1019.93
2016-12-05T11:42:59.254Z,1019.90
2016-12-05T11:47:55.750Z,1019.90
2016-12-05T11:52:52.186Z,1019.92
2016-12-05T11:57:49.120Z,1019.82
2016-12-05T12:07:47.447Z,1019.77
2016-12-05T12:12:43.920Z,1019.69
2016-12-05T12:17:40.412Z,1019.65
2016-12-05T12:22:38.130Z,1019.56
2016-12-05T12:27:34.787Z,1019.59
2016-12-05T12:37:33.830Z,1019.56
2016-12-05T12:42:30.938Z,1019.42
2016-12-05T12:52:30.148Z,1019.46
2016-12-05T12:57:27.828Z,1019.39
2016-12-05T13:02:24.278Z,1019.40
2016-12-05T13:07:22.365Z,1019.44
2016-12-05T13:12:18.667Z,1019.39
2016-12-05T13:17:15.204Z,1019.41
2016-12-05T13:22:11.618Z,1019.43
2016-12-05T13:27:08.553Z,1019.41
2016-12-05T13:32:06.442Z,1019.44
2016-12-05T13:37:03.077Z,1019.36
2016-12-05T13:41:59.653Z,1019.30
2016-12-05T13:46:56.167Z,1019.38
2016-12-05T13:51:53.916Z,1019.37
2016-12-05T13:56:50.243Z,1019.38
2016-12-05T14:01:46.748Z,1019.54
2016-12-05T14:06:43.503Z,1019.50
2016-12-05T14:11:39.942Z,1019.54
2016-12-05T14:16:36.179Z,1019.52
2016-12-05T14:21:32.443Z,1019.55
2016-12-05T14:26:29.247Z,1019.66
2016-12-05T14:31:25.594Z,1019.59
2016-12-05T14:36:22.047Z,1019.70
2016-12-05T14:41:18.499Z,1019.71
2016-12-05T14:46:15.008Z,1019.64
2016-12-05T14:51:11.407Z,1019.78
2016-12-05T14:56:07.804Z,1019.81
2016-12-05T15:01:05.308Z,1019.75
2016-12-05T15:06:02.242Z,1019.72
2016-12-05T15:10:58.604Z,1019.74
2016-12-05T15:15:54.798Z,1019.68
2016-12-05T15:20:51.346Z,1019.79
2016-12-05T15:25:47.940Z,1019.78
2016-12-05T15:30:44.148Z,1019.83
2016-12-05T15:35:40.608Z,1019.82
2016-12-05T15:40:36.927Z,1019.87
2016-12-05T15:45:33.204Z,1019.83
2016-12-05T15:50:29.548Z,1019.84
2016-12-05T15:55:25.966Z,1019.80
2016-12-05T16:00:22.380Z,1019.78
2016-12-05T16:05:20.470Z,1019.81
2016-12-05T16:10:16.691Z,1019.89
2016-12-05T16:15:13.130Z,1019.90
2016-12-05T16:20:09.419Z,1019.95
2016-12-05T16:25:05.562Z,1019.89
2016-12-05T16:30:02.077Z,1019.91
2016-12-05T16:34:58.282Z,1019.93
2016-12-05T16:39:54.668Z,1019.93
2016-12-05T16:44:51.116Z,1020.02
2016-12-05T16:49:48.105Z,1020.02
2016-12-05T16:54:44.655Z,1020.11
2016-12-05T16:59:41.602Z,1020.10
2016-12-05T17:04:38.676Z,1020.11
2016-12-05T17:09:36.028Z,1020.05
2016-12-05T17:14:32.425Z,1020.04
2016-12-05T17:24:32.904Z,1020.08
2016-12-05T17:29:30.371Z,1020.05
2016-12-05T17:34:26.329Z,1020.17
2016-12-05T17:39:22.864Z,1020.21
2016-12-05T17:44:19.921Z,1020.16
2016-12-05T17:49:16.601Z,1020.23
2016-12-05T17:54:13.217Z,1020.15
2016-12-05T17:59:09.231Z,1020.19
2016-12-05T18:04:05.411Z,1020.26
2016-12-05T18:09:01.695Z,1020.32
2016-12-05T18:13:58.091Z,1020.37
2016-12-05T18:23:56.426Z,1020.29
2016-12-05T18:28:52.569Z,1020.39
2016-12-05T18:33:48.872Z,1020.45
2016-12-05T18:38:45.196Z,1020.47
2016-12-05T18:43:41.352Z,1020.42
2016-12-05T18:48:37.537Z,1020.49
2016-12-05T18:53:33.902Z,1020.49
2016-12-05T18:58:31.137Z,1020.42
2016-12-05T19:03:28.200Z,1020.49
2016-12-05T19:08:25.039Z,1020.40
2016-12-05T19:13:21.399Z,1020.42
2016-12-05T19:18:18.056Z,1020.44
2016-12-05T19:23:14.552Z,1020.53
2016-12-05T19:28:11.898Z,1020.56
2016-12-05T19:33:07.735Z,1020.52
2016-12-05T19:38:05.113Z,1020.57
2016-12-05T19:43:01.138Z,1020.46
2016-12-05T19:47:58.381Z,1020.60
2016-12-05T19:52:54.294Z,1020.71
2016-12-05T19:57:50.720Z,1020.75
2016-12-05T20:02:46.809Z,1020.81
2016-12-05T20:07:43.001Z,1020.90
2016-12-05T20:12:39.227Z,1020.79
2016-12-05T20:17:35.713Z,1020.81
2016-12-05T20:22:31.909Z,1020.88
2016-12-05T20:27:28.250Z,1020.94
2016-12-05T20:32:24.455Z,1020.98
2016-12-05T20:37:20.751Z,1021.13
2016-12-05T20:42:17.392Z,1021.03
2016-12-05T20:47:13.554Z,1021.11
2016-12-05T20:52:09.819Z,1021.10
2016-12-05T20:57:05.701Z,1021.16
2016-12-05T21:02:01.961Z,1021.09
2016-12-05T21:06:58.224Z,1021.06
2016-12-05T21:11:54.606Z,1021.08
2016-12-05T21:16:51.103Z,1021.09
2016-12-05T21:21:47.465Z,1021.12
2016-12-05T21:26:43.640Z,1021.10
2016-12-05T21:31:39.794Z,1021.08
2016-12-05T21:36:35.960Z,1021.03
2016-12-05T21:41:32.252Z,1021.16
2016-12-05T21:46:28.644Z,1021.21
2016-12-05T21:51:24.715Z,1021.11
2016-12-05T21:56:21.000Z,1021.26
2016-12-05T22:01:17.200Z,1021.26
2016-12-05T22:06:14.313Z,1021.35
2016-12-05T22:11:10.828Z,1021.28
2016-12-05T22:16:07.171Z,1021.29
2016-12-05T22:21:03.642Z,1021.31
2016-12-05T22:26:00.034Z,1021.33
2016-12-05T22:30:56.678Z,1021.24
2016-12-05T22:35:52.969Z,1021.33
2016-12-05T22:40:49.880Z,1021.28
2016-12-05T22:45:46.068Z,1021.24
2016-12-05T22:50:42.219Z,1021.20
2016-12-05T22:55:38.538Z,1021.29
2016-12-05T23:00:34.886Z,1021.27
2016-12-05T23:05:34.246Z,1021.33
2016-12-05T23:10:29.840Z,1021.30
2016-12-05T23:15:28.511Z,1021.42
2016-12-05T23:20:25.031Z,1021.35
2016-12-05T23:25:23.267Z,1021.39
2016-12-05T23:30:21.996Z,1021.43
2016-12-05T23:35:18.711Z,1021.55
2016-12-05T23:40:14.596Z,1021.44
2016-12-05T23:45:17.369Z,1021.39
2016-12-05T23:50:12.460Z,1021.44
2016-12-05T23:55:11.038Z,1021.50
